Time;durP1;ratioP1;P1;durP2;ratioP2;P2;SDS_P1;SDS_P2;PMS_P1;PMS_P2;Temp;Humidity;BMP_temperature;BMP_pressure;BME280_temperature;BME280_humidity;BME280_pressure;Samples;Min_cycle;Max_cycle;Signal;HPM_P1;HPM_P2
2022/07/22 00:01:21;;;;;;;4.88;3.70;;;24.20;99.90;;;;;;7400060;19;20150;-80
2022/07/22 00:03:47;;;;;;;5.22;4.05;;;24.10;99.90;;;;;;7396582;19;20266;-80
2022/07/22 00:06:13;;;;;;;4.57;3.58;;;24.10;99.90;;;;;;7398606;19;20134;-80
2022/07/22 00:08:39;;;;;;;4.13;3.55;;;24.10;99.90;;;;;;7399832;19;20178;-80
2022/07/22 00:11:05;;;;;;;6.95;3.92;;;24.00;99.90;;;;;;7398077;19;20543;-79
2022/07/22 00:13:31;;;;;;;4.22;3.83;;;24.00;99.90;;;;;;7396068;19;20146;-79
2022/07/22 00:15:58;;;;;;;3.85;3.55;;;24.00;99.90;;;;;;7401115;19;20405;-82
2022/07/22 00:18:25;;;;;;;6.57;3.92;;;23.70;99.90;;;;;;7399484;19;20142;-83
2022/07/22 00:20:51;;;;;;;4.38;3.53;;;23.70;99.90;;;;;;7395947;19;20491;-80
2022/07/22 00:23:17;;;;;;;4.45;3.63;;;23.70;99.90;;;;;;7398886;19;20493;-80
2022/07/22 00:25:43;;;;;;;4.68;3.72;;;23.70;99.90;;;;;;7396123;19;20268;-81
2022/07/22 00:28:09;;;;;;;3.80;3.38;;;23.80;99.90;;;;;;7395297;19;20154;-80
2022/07/22 00:30:35;;;;;;;3.92;3.53;;;23.70;99.90;;;;;;7399114;19;20460;-81
2022/07/22 00:33:00;;;;;;;4.00;3.60;;;23.70;99.90;;;;;;7396497;19;20206;-80
2022/07/22 00:35:26;;;;;;;4.32;3.40;;;23.70;99.90;;;;;;7397732;19;20163;-80
2022/07/22 00:37:52;;;;;;;6.57;3.95;;;23.60;99.90;;;;;;7398561;19;20163;-80
2022/07/22 00:40:18;;;;;;;4.28;3.30;;;23.60;99.90;;;;;;7397893;19;20155;-80
2022/07/22 00:42:44;;;;;;;6.03;3.78;;;23.60;99.90;;;;;;7396563;19;20777;-78
2022/07/22 00:45:10;;;;;;;4.15;3.70;;;23.60;99.90;;;;;;7394639;19;20540;-79
2022/07/22 00:47:37;;;;;;;5.60;3.85;;;23.70;99.90;;;;;;7394002;19;20143;-80
2022/07/22 00:50:04;;;;;;;3.92;3.55;;;23.80;99.90;;;;;;7397074;19;20217;-80
2022/07/22 00:52:31;;;;;;;4.35;3.95;;;23.80;99.90;;;;;;7397351;19;20143;-80
2022/07/22 00:54:59;;;;;;;6.53;3.72;;;23.90;99.90;;;;;;7395401;19;20161;-81
2022/07/22 00:57:26;;;;;;;6.05;3.65;;;23.90;99.90;;;;;;7397232;19;20179;-81
2022/07/22 00:59:52;;;;;;;5.57;3.83;;;23.90;99.90;;;;;;7396138;19;20222;-81
2022/07/22 01:02:18;;;;;;;4.63;4.20;;;23.90;99.90;;;;;;7397789;19;20146;-80
2022/07/22 01:04:44;;;;;;;6.78;3.65;;;23.80;99.90;;;;;;7395704;19;20143;-81
2022/07/22 01:07:10;;;;;;;4.28;3.75;;;23.80;99.90;;;;;;7395550;19;20209;-80
2022/07/22 01:09:36;;;;;;;5.97;4.07;;;23.80;99.90;;;;;;7396232;19;20154;-80
2022/07/22 01:12:03;;;;;;;6.65;3.85;;;23.70;99.90;;;;;;7397997;19;20139;-80
2022/07/22 01:14:29;;;;;;;3.90;3.50;;;23.70;99.90;;;;;;7394984;19;20138;-79
2022/07/22 01:16:55;;;;;;;4.38;3.67;;;23.70;99.90;;;;;;7398086;19;20155;-79
2022/07/22 01:19:21;;;;;;;5.45;3.55;;;23.70;99.90;;;;;;7396029;19;20139;-80
2022/07/22 01:21:47;;;;;;;4.80;3.63;;;23.60;99.90;;;;;;7396813;19;20139;-79
2022/07/22 01:24:12;;;;;;;4.30;3.58;;;23.60;99.90;;;;;;7397671;19;20691;-79
2022/07/22 01:26:38;;;;;;;4.00;3.40;;;23.60;99.90;;;;;;7395636;19;20143;-79
2022/07/22 01:29:04;;;;;;;4.68;3.80;;;23.50;99.90;;;;;;7394796;19;20481;-80
2022/07/22 01:31:30;;;;;;;7.03;3.78;;;23.00;99.90;;;;;;7396885;19;20139;-79
2022/07/22 01:33:56;;;;;;;4.10;3.70;;;22.90;99.90;;;;;;7397078;19;20488;-80
2022/07/22 01:36:29;;;;;;;4.40;3.90;;;22.90;99.90;;;;;;7398643;19;20490;-80
2022/07/22 01:38:55;;;;;;;5.30;3.55;;;23.10;99.90;;;;;;7394657;19;20135;-80
2022/07/22 01:41:21;;;;;;;5.75;4.05;;;23.20;99.90;;;;;;7395713;19;20150;-80
2022/07/22 01:43:47;;;;;;;3.88;3.38;;;23.40;99.90;;;;;;7394815;19;20604;-80
2022/07/22 01:46:12;;;;;;;5.78;3.88;;;23.40;99.90;;;;;;7393510;19;20142;-80
2022/07/22 01:48:41;;;;;;;5.13;3.83;;;23.40;99.90;;;;;;7395599;19;20153;-81
2022/07/22 01:51:06;;;;;;;5.00;3.58;;;23.40;99.90;;;;;;7393834;19;20217;-80
2022/07/22 01:53:32;;;;;;;4.88;3.83;;;23.40;99.90;;;;;;7396829;19;20155;-79
2022/07/22 01:55:58;;;;;;;6.45;4.18;;;23.00;99.90;;;;;;7394701;19;20139;-80
2022/07/22 01:58:24;;;;;;;6.05;3.85;;;22.90;99.90;;;;;;7394281;19;20138;-79
2022/07/22 02:00:50;;;;;;;4.78;4.10;;;22.90;99.90;;;;;;7394112;19;20135;-80
2022/07/22 02:03:16;;;;;;;5.80;3.83;;;23.00;99.90;;;;;;7393753;19;20139;-80
2022/07/22 02:05:42;;;;;;;4.60;3.92;;;22.90;99.90;;;;;;7394161;19;20194;-80
2022/07/22 02:08:10;;;;;;;5.28;4.15;;;22.90;99.90;;;;;;7391475;19;20463;-79
2022/07/22 02:10:36;;;;;;;5.22;4.22;;;23.10;99.90;;;;;;7395026;19;20213;-80
2022/07/22 02:13:03;;;;;;;5.47;4.15;;;23.20;99.90;;;;;;7395941;19;20151;-79
2022/07/22 02:15:29;;;;;;;5.15;4.13;;;23.20;99.90;;;;;;7393605;19;20632;-81
2022/07/22 02:17:55;;;;;;;5.78;4.30;;;23.10;99.90;;;;;;7391835;19;20158;-80
2022/07/22 02:20:21;;;;;;;4.80;4.22;;;23.10;99.90;;;;;;7392257;19;20175;-80
2022/07/22 02:22:47;;;;;;;4.97;4.47;;;23.00;99.90;;;;;;7395541;19;20134;-79
2022/07/22 02:25:14;;;;;;;6.00;4.60;;;23.00;99.90;;;;;;7394129;19;20502;-80
2022/07/22 02:27:41;;;;;;;6.65;5.20;;;23.00;99.90;;;;;;7390686;19;20130;-79
2022/07/22 02:30:07;;;;;;;7.20;4.78;;;22.70;99.90;;;;;;7394110;19;20612;-79
2022/07/22 02:32:33;;;;;;;6.53;5.10;;;22.80;99.90;;;;;;7392613;19;20157;-80
2022/07/22 02:34:59;;;;;;;6.35;4.78;;;22.60;99.90;;;;;;7391452;19;20166;-79
2022/07/22 02:37:25;;;;;;;5.78;4.75;;;22.80;99.90;;;;;;7393740;19;20134;-78
2022/07/22 02:39:50;;;;;;;7.93;5.05;;;22.60;99.90;;;;;;7395836;19;20137;-78
2022/07/22 02:42:17;;;;;;;7.32;4.93;;;22.60;99.90;;;;;;7390221;19;20146;-79
2022/07/22 02:44:42;;;;;;;5.43;4.70;;;22.70;99.90;;;;;;7393071;19;20615;-79
2022/07/22 02:47:09;;;;;;;6.93;5.57;;;22.70;99.90;;;;;;7391313;19;20145;-79
2022/07/22 02:49:35;;;;;;;6.45;4.40;;;22.20;99.90;;;;;;7392932;19;20491;-79
2022/07/22 02:52:01;;;;;;;10.60;4.90;;;22.40;99.90;;;;;;7395435;19;20145;-81
2022/07/22 02:54:27;;;;;;;7.35;5.30;;;22.60;99.90;;;;;;7392215;19;20466;-82
2022/07/22 02:56:52;;;;;;;7.47;4.90;;;22.80;99.90;;;;;;7394838;19;20144;-82
2022/07/22 02:59:18;;;;;;;5.45;4.45;;;22.90;99.90;;;;;;7400099;19;20138;-81
2022/07/22 03:01:44;;;;;;;6.80;4.80;;;22.50;99.90;;;;;;7399865;19;20139;-81
2022/07/22 03:04:10;;;;;;;6.03;4.82;;;22.30;99.90;;;;;;7402546;19;20854;-81
2022/07/22 03:06:36;;;;;;;6.20;4.88;;;22.40;99.90;;;;;;7401998;19;20141;-81
2022/07/22 03:09:01;;;;;;;5.90;4.97;;;22.60;99.90;;;;;;7404164;19;20168;-81
2022/07/22 03:11:27;;;;;;;7.22;4.85;;;22.80;99.90;;;;;;7402830;19;20153;-80
2022/07/22 03:13:54;;;;;;;6.20;5.18;;;22.70;99.90;;;;;;7401013;19;20139;-80
2022/07/22 03:16:19;;;;;;;6.50;4.90;;;22.70;99.90;;;;;;7401707;19;20243;-80
2022/07/22 03:18:45;;;;;;;5.35;4.70;;;22.60;99.90;;;;;;7399842;19;20154;-79
2022/07/22 03:21:11;;;;;;;5.65;4.93;;;22.60;99.90;;;;;;7392712;19;20158;-81
2022/07/22 03:23:37;;;;;;;8.70;5.53;;;22.60;99.90;;;;;;7398432;19;20835;-81
2022/07/22 03:26:03;;;;;;;4.65;4.10;;;22.50;99.90;;;;;;7397440;19;20154;-80
2022/07/22 03:28:29;;;;;;;6.72;5.10;;;22.60;99.90;;;;;;7396379;19;20640;-81
2022/07/22 03:30:54;;;;;;;5.28;4.57;;;22.50;99.90;;;;;;7398622;19;20135;-81
2022/07/22 03:33:20;;;;;;;6.28;5.05;;;22.00;99.90;;;;;;7397323;19;20130;-81
2022/07/22 03:35:46;;;;;;;5.38;4.88;;;22.10;99.90;;;;;;7398393;19;20138;-81
2022/07/22 03:38:12;;;;;;;7.18;5.30;;;22.30;99.90;;;;;;7397102;19;20206;-81
2022/07/22 03:40:37;;;;;;;7.43;5.32;;;22.40;99.90;;;;;;7396777;19;20150;-81
2022/07/22 03:43:03;;;;;;;8.32;5.70;;;22.40;99.90;;;;;;7397496;19;20210;-81
2022/07/22 03:45:29;;;;;;;8.23;5.15;;;22.40;99.90;;;;;;7398079;19;20138;-81
2022/07/22 03:47:57;;;;;;;7.35;5.70;;;22.40;99.90;;;;;;7393695;19;20151;-81
2022/07/22 03:50:24;;;;;;;5.78;5.22;;;22.50;99.90;;;;;;7397254;19;20155;-80
2022/07/22 03:52:49;;;;;;;6.75;5.72;;;22.10;99.90;;;;;;7398162;19;20610;-81
2022/07/22 03:55:15;;;;;;;7.40;5.65;;;22.10;99.90;;;;;;7399011;19;20130;-82
2022/07/22 03:57:41;;;;;;;7.00;5.65;;;22.30;99.90;;;;;;7398024;19;20126;-80
2022/07/22 04:00:07;;;;;;;7.93;5.50;;;22.20;99.90;;;;;;7396522;19;20242;-80
2022/07/22 04:02:33;;;;;;;5.82;5.00;;;22.10;99.90;;;;;;7398019;19;20143;-81
2022/07/22 04:04:59;;;;;;;6.35;5.20;;;21.90;99.90;;;;;;7397115;19;20130;-81
2022/07/22 04:07:25;;;;;;;5.43;4.93;;;22.00;99.90;;;;;;7395169;19;20134;-82
2022/07/22 04:09:50;;;;;;;6.47;5.65;;;22.00;99.90;;;;;;7391235;19;20138;-81
2022/07/22 04:12:16;;;;;;;6.50;5.72;;;22.20;99.90;;;;;;7396415;19;20131;-81
2022/07/22 04:14:42;;;;;;;5.82;4.95;;;22.40;99.90;;;;;;7395681;19;20531;-81
2022/07/22 04:17:08;;;;;;;6.07;5.43;;;22.40;99.90;;;;;;7396055;19;20142;-81
2022/07/22 04:19:33;;;;;;;6.80;5.93;;;22.40;99.90;;;;;;7393907;19;20174;-81
2022/07/22 04:21:59;;;;;;;7.38;5.07;;;22.40;99.90;;;;;;7393537;19;20149;-81
2022/07/22 04:24:25;;;;;;;6.68;5.57;;;22.40;99.90;;;;;;7395453;19;20552;-81
2022/07/22 04:26:51;;;;;;;6.25;5.30;;;22.40;99.90;;;;;;7389862;19;20501;-81
2022/07/22 04:29:16;;;;;;;6.95;5.80;;;22.30;99.90;;;;;;7395130;19;20278;-80
2022/07/22 04:31:42;;;;;;;7.95;5.40;;;22.30;99.90;;;;;;7393336;19;20147;-80
2022/07/22 04:34:08;;;;;;;7.03;5.63;;;22.20;99.90;;;;;;7395540;19;20139;-81
2022/07/22 04:36:34;;;;;;;5.95;5.35;;;22.30;99.90;;;;;;7394617;19;20154;-81
2022/07/22 04:38:59;;;;;;;6.80;5.60;;;22.20;99.90;;;;;;7395816;19;20198;-81
2022/07/22 04:41:25;;;;;;;8.20;5.80;;;22.10;99.90;;;;;;7392631;19;20147;-81
2022/07/22 04:43:51;;;;;;;6.80;5.43;;;22.00;99.90;;;;;;7397067;19;20551;-81
2022/07/22 04:46:17;;;;;;;6.80;5.10;;;22.00;99.90;;;;;;7390688;19;20149;-81
2022/07/22 04:48:42;;;;;;;6.20;4.93;;;22.00;99.90;;;;;;7393537;19;20142;-79
2022/07/22 04:51:08;;;;;;;8.85;5.50;;;22.10;99.90;;;;;;7391920;19;20520;-78
2022/07/22 04:53:34;;;;;;;6.85;5.68;;;22.10;99.90;;;;;;7391613;19;20438;-78
2022/07/22 04:56:00;;;;;;;8.57;5.72;;;22.00;99.90;;;;;;7391155;19;20173;-77
2022/07/22 04:58:26;;;;;;;6.70;5.70;;;22.00;99.90;;;;;;7391346;19;20142;-77
2022/07/22 05:00:51;;;;;;;8.50;5.75;;;22.00;99.90;;;;;;7388694;19;20214;-78
2022/07/22 05:03:18;;;;;;;6.38;5.75;;;22.00;99.90;;;;;;7392984;19;20159;-78
2022/07/22 05:05:43;;;;;;;7.80;5.55;;;22.00;99.90;;;;;;7388184;19;20221;-77
2022/07/22 05:08:09;;;;;;;6.43;5.28;;;22.00;99.90;;;;;;7389218;19;20146;-78
2022/07/22 05:10:35;;;;;;;5.75;5.10;;;22.00;99.90;;;;;;7392116;19;20138;-75
2022/07/22 05:13:01;;;;;;;8.95;5.75;;;22.00;99.90;;;;;;7390681;19;20149;-76
2022/07/22 05:15:27;;;;;;;6.55;5.05;;;22.00;99.90;;;;;;7391323;19;20239;-75
2022/07/22 05:17:52;;;;;;;8.32;6.20;;;21.90;99.90;;;;;;7388884;19;20146;-76
2022/07/22 05:20:19;;;;;;;9.02;5.38;;;21.90;99.90;;;;;;7391971;19;20157;-76
2022/07/22 05:22:45;;;;;;;8.30;5.90;;;21.90;99.90;;;;;;7396614;19;20142;-76
2022/07/22 05:25:11;;;;;;;7.28;5.57;;;22.00;99.90;;;;;;7392016;19;20147;-77
2022/07/22 05:27:36;;;;;;;6.38;5.70;;;22.10;99.90;;;;;;7385368;19;20150;-78
2022/07/22 05:30:03;;;;;;;8.07;5.75;;;22.10;99.90;;;;;;7385348;19;20139;-79
2022/07/22 05:32:28;;;;;;;6.97;5.85;;;22.00;99.90;;;;;;7390102;19;20147;-79
2022/07/22 05:34:54;;;;;;;8.93;6.43;;;22.10;99.90;;;;;;7391510;19;20607;-79
2022/07/22 05:37:20;;;;;;;6.65;5.85;;;21.80;99.90;;;;;;7390338;19;20445;-79
2022/07/22 05:39:46;;;;;;;6.18;5.60;;;22.10;99.90;;;;;;7390743;19;20166;-80
2022/07/22 05:42:11;;;;;;;7.07;5.95;;;22.20;99.90;;;;;;7389561;19;20143;-78
2022/07/22 05:44:37;;;;;;;7.60;5.70;;;22.20;99.90;;;;;;7394839;19;20163;-78
2022/07/22 05:47:03;;;;;;;6.70;5.78;;;22.20;99.90;;;;;;7387101;19;20215;-75
2022/07/22 05:49:29;;;;;;;6.10;5.50;;;22.10;99.90;;;;;;7397045;19;20464;-76
2022/07/22 05:52:00;;;;;;;7.97;5.72;;;22.10;99.90;;;;;;7395530;19;20145;-76
2022/07/22 05:54:26;;;;;;;9.63;6.57;;;22.10;99.90;;;;;;7388943;19;20130;-76
2022/07/22 05:56:52;;;;;;;8.02;5.55;;;22.10;99.90;;;;;;7389314;19;20179;-75
2022/07/22 05:59:17;;;;;;;7.10;5.35;;;22.10;99.90;;;;;;7386978;19;20160;-76
2022/07/22 06:01:43;;;;;;;7.38;6.05;;;22.10;99.90;;;;;;7385439;19;20147;-76
2022/07/22 06:04:09;;;;;;;7.75;6.95;;;22.20;99.90;;;;;;7389609;19;20667;-76
2022/07/22 06:06:35;;;;;;;7.00;6.30;;;21.80;99.90;;;;;;7388265;19;20456;-77
2022/07/22 06:09:00;;;;;;;8.25;6.03;;;21.90;99.90;;;;;;7385853;19;20248;-75
2022/07/22 06:11:26;;;;;;;7.85;6.70;;;22.10;99.90;;;;;;7386356;19;20860;-75
2022/07/22 06:13:53;;;;;;;7.50;6.38;;;22.10;99.90;;;;;;7386874;19;20150;-75
2022/07/22 06:16:19;;;;;;;8.25;5.93;;;22.10;99.90;;;;;;7391371;19;20138;-74
2022/07/22 06:18:44;;;;;;;7.20;6.35;;;22.00;99.90;;;;;;7387796;19;20488;-74
2022/07/22 06:21:10;;;;;;;8.73;6.15;;;22.10;99.90;;;;;;7384271;19;20612;-76
2022/07/22 06:23:36;;;;;;;8.32;6.75;;;22.30;99.90;;;;;;7389796;19;20155;-75
2022/07/22 06:26:02;;;;;;;8.75;6.30;;;22.40;99.90;;;;;;7386470;19;20178;-75
2022/07/22 06:28:28;;;;;;;6.60;5.88;;;22.70;99.90;;;;;;7389073;19;20242;-75
2022/07/22 06:30:53;;;;;;;7.38;6.40;;;23.60;99.90;;;;;;7386035;19;20143;-75
2022/07/22 06:33:19;;;;;;;7.10;5.90;;;24.30;99.90;;;;;;7385977;19;20152;-76
2022/07/22 06:35:45;;;;;;;7.90;5.55;;;25.10;99.90;;;;;;7389795;19;20199;-74
2022/07/22 06:38:11;;;;;;;8.52;6.25;;;25.40;99.90;;;;;;7393794;19;20146;-76
2022/07/22 06:40:37;;;;;;;7.15;6.32;;;25.50;99.90;;;;;;7387885;19;20143;-75
2022/07/22 06:43:03;;;;;;;7.68;6.22;;;25.60;99.90;;;;;;7391621;19;20138;-75
2022/07/22 06:45:29;;;;;;;9.90;6.15;;;26.10;99.90;;;;;;7387610;19;20154;-75
2022/07/22 06:47:55;;;;;;;9.27;6.72;;;26.60;99.90;;;;;;7382124;19;20150;-75
2022/07/22 06:50:21;;;;;;;7.95;6.60;;;26.30;99.90;;;;;;7384605;19;20149;-75
2022/07/22 06:52:48;;;;;;;9.05;6.90;;;26.00;99.90;;;;;;7383184;19;20138;-75
2022/07/22 06:55:15;;;;;;;8.05;6.47;;;26.10;99.90;;;;;;7389993;19;20167;-75
2022/07/22 06:57:40;;;;;;;6.78;6.13;;;26.30;99.90;;;;;;7380708;19;20750;-74
2022/07/22 07:00:08;;;;;;;7.07;6.15;;;26.70;99.90;;;;;;7389583;19;20143;-74
2022/07/22 07:02:36;;;;;;;9.68;6.47;;;26.80;99.90;;;;;;7386427;19;20169;-78
2022/07/22 07:05:03;;;;;;;6.10;5.50;;;26.80;99.90;;;;;;7382227;19;20147;-81
2022/07/22 07:07:31;;;;;;;7.70;6.10;;;26.80;99.90;;;;;;7385725;19;20146;-80
2022/07/22 07:09:57;;;;;;;8.38;5.90;;;27.10;99.90;;;;;;7387472;19;20637;-80
2022/07/22 07:12:23;;;;;;;8.07;6.05;;;27.10;99.90;;;;;;7391091;19;20134;-80
2022/07/22 07:14:48;;;;;;;7.22;5.53;;;27.20;99.90;;;;;;7390473;19;20139;-79
2022/07/22 07:17:15;;;;;;;7.95;5.70;;;27.00;99.90;;;;;;7386464;19;20489;-79
2022/07/22 07:19:41;;;;;;;7.45;6.30;;;27.20;99.90;;;;;;7383656;19;20185;-79
2022/07/22 07:22:07;;;;;;;7.70;6.25;;;27.40;99.90;;;;;;7389899;19;20139;-80
2022/07/22 07:24:33;;;;;;;8.60;5.53;;;27.60;99.90;;;;;;7386714;19;20242;-80
2022/07/22 07:26:59;;;;;;;8.68;6.53;;;27.30;99.90;;;;;;7383975;19;20207;-80
2022/07/22 07:29:24;;;;;;;7.65;6.40;;;27.30;99.90;;;;;;7388110;19;20145;-80
2022/07/22 07:31:50;;;;;;;8.50;6.32;;;27.20;99.90;;;;;;7387885;19;20257;-81
2022/07/22 07:34:16;;;;;;;7.57;5.78;;;27.00;99.90;;;;;;7388385;19;20147;-80
2022/07/22 07:36:42;;;;;;;6.95;5.63;;;27.10;99.90;;;;;;7386540;19;20158;-81
2022/07/22 07:39:08;;;;;;;6.70;6.00;;;27.40;99.90;;;;;;7387872;19;20157;-82
2022/07/22 07:41:34;;;;;;;6.90;5.60;;;27.50;99.90;;;;;;7388437;19;20146;-79
2022/07/22 07:44:00;;;;;;;7.50;6.25;;;27.50;99.90;;;;;;7396786;19;20206;-79
2022/07/22 07:46:26;;;;;;;6.25;5.65;;;27.50;99.90;;;;;;7391967;19;20162;-79
2022/07/22 07:48:52;;;;;;;6.45;5.85;;;27.50;99.90;;;;;;7395180;19;20164;-82
2022/07/22 07:51:17;;;;;;;7.35;5.80;;;27.70;99.90;;;;;;7402017;19;20139;-82
2022/07/22 07:53:43;;;;;;;7.18;6.20;;;27.70;99.90;;;;;;7397548;19;20151;-87
2022/07/22 07:56:09;;;;;;;9.02;7.28;;;27.80;99.90;;;;;;7393023;19;20157;-81
2022/07/22 07:58:40;;;;;;;7.38;6.63;;;27.80;99.90;;;;;;7394606;19;20564;-82
2022/07/22 08:01:07;;;;;;;7.80;5.82;;;28.40;99.90;;;;;;7397027;19;20143;-80
2022/07/22 08:03:32;;;;;;;7.40;6.22;;;28.30;99.90;;;;;;7395756;19;20173;-81
2022/07/22 08:05:59;;;;;;;10.60;6.60;;;28.10;99.90;;;;;;7394510;19;20155;-83
2022/07/22 08:08:25;;;;;;;7.93;5.85;;;28.00;99.90;;;;;;7392659;19;20150;-81
2022/07/22 08:10:51;;;;;;;7.38;6.35;;;27.80;99.90;;;;;;7393912;19;20154;-81
2022/07/22 08:13:20;;;;;;;10.98;6.18;;;27.90;99.90;;;;;;7394760;19;20146;-81
2022/07/22 08:15:46;;;;;;;7.28;6.35;;;28.00;99.90;;;;;;7395805;19;20169;-82
2022/07/22 08:18:12;;;;;;;7.07;6.15;;;27.90;99.90;;;;;;7395775;19;20150;-82
2022/07/22 08:20:38;;;;;;;5.90;5.18;;;28.00;99.90;;;;;;7391395;19;20155;-83
2022/07/22 08:23:04;;;;;;;7.50;6.07;;;28.50;99.90;;;;;;7396220;19;20140;-82
2022/07/22 08:25:30;;;;;;;8.13;6.10;;;28.80;99.90;;;;;;7395979;19;20150;-81
2022/07/22 08:27:56;;;;;;;6.88;5.80;;;28.70;99.90;;;;;;7391118;19;20165;-81
2022/07/22 08:30:23;;;;;;;6.60;5.43;;;28.80;99.90;;;;;;7393205;19;20142;-82
2022/07/22 08:32:49;;;;;;;6.97;5.55;;;28.90;99.90;;;;;;7395915;19;20157;-82
2022/07/22 08:35:15;;;;;;;6.13;5.25;;;29.00;99.90;;;;;;7400928;19;20463;-82
2022/07/22 08:37:42;;;;;;;5.90;5.30;;;29.10;99.90;;;;;;7406130;19;20142;-81
2022/07/22 08:40:09;;;;;;;8.10;6.28;;;29.20;99.90;;;;;;7413052;19;20138;-86
2022/07/22 08:42:42;;;;;;;7.40;6.18;;;29.20;99.90;;;;;;7406041;19;20139;-83
2022/07/22 08:45:09;;;;;;;7.82;5.45;;;29.00;99.90;;;;;;7397482;19;20210;-81
2022/07/22 08:47:35;;;;;;;6.00;5.50;;;29.10;99.90;;;;;;7393043;19;20158;-84
2022/07/22 08:50:02;;;;;;;7.57;5.93;;;29.40;99.90;;;;;;7396474;19;20635;-83
2022/07/22 08:52:27;;;;;;;8.15;5.53;;;29.40;99.90;;;;;;7393696;19;20146;-82
2022/07/22 08:54:55;;;;;;;7.10;5.18;;;29.30;99.90;;;;;;7390977;19;20596;-82
2022/07/22 08:57:21;;;;;;;6.35;5.57;;;29.10;99.90;;;;;;7393013;19;20162;-83
2022/07/22 08:59:56;;;;;;;7.13;5.38;;;29.00;99.90;;;;;;7398239;19;20138;-82
2022/07/22 09:02:25;;;;;;;8.80;5.55;;;28.70;99.90;;;;;;7396685;19;20145;-82
2022/07/22 09:05:01;;;;;;;6.13;5.55;;;28.60;99.90;;;;;;7397216;19;20147;-83
2022/07/22 09:07:29;;;;;;;7.75;6.15;;;28.70;99.90;;;;;;7396684;19;20684;-82
2022/07/22 09:09:57;;;;;;;6.95;5.82;;;28.40;99.90;;;;;;7398495;19;20596;-84
2022/07/22 09:12:24;;;;;;;7.95;5.63;;;28.30;99.90;;;;;;7394793;19;20138;-82
2022/07/22 09:14:52;;;;;;;6.40;5.35;;;28.30;99.90;;;;;;7397121;19;20139;-82
2022/07/22 09:17:30;;;;;;;10.02;5.97;;;28.10;99.90;;;;;;7395982;19;20590;-83
2022/07/22 09:19:59;;;;;;;5.82;5.15;;;28.00;99.90;;;;;;7391154;19;20169;-83
2022/07/22 09:22:32;;;;;;;6.03;5.43;;;28.10;99.90;;;;;;7392458;19;20157;-81
2022/07/22 09:25:16;;;;;;;7.95;5.10;;;28.10;99.90;;;;;;7395054;19;20152;-81
2022/07/22 09:27:41;;;;;;;6.40;5.45;;;28.40;99.90;;;;;;7388986;19;20218;-81
2022/07/22 09:30:12;;;;;;;6.90;5.60;;;28.50;99.90;;;;;;7393271;19;20140;-81
2022/07/22 09:32:41;;;;;;;6.65;5.18;;;28.30;99.90;;;;;;7391641;19;20147;-80
2022/07/22 09:35:07;;;;;;;7.15;5.40;;;28.20;99.90;;;;;;7389933;19;20127;-80
2022/07/22 09:37:33;;;;;;;7.05;5.75;;;28.10;99.90;;;;;;7390207;19;20631;-81
2022/07/22 09:40:38;;;;;;;5.53;4.90;;;28.40;99.90;;;;;;7390844;19;20152;-81
2022/07/22 09:43:12;;;;;;;6.18;5.40;;;28.40;99.90;;;;;;7392394;19;20149;-82
2022/07/22 09:45:46;;;;;;;7.05;5.47;;;28.20;99.90;;;;;;7389371;19;20137;-82
2022/07/22 09:48:12;;;;;;;6.13;5.25;;;28.20;99.90;;;;;;7399916;19;20202;-81
2022/07/22 09:50:38;;;;;;;5.75;5.15;;;28.30;99.90;;;;;;7388978;19;20149;-80
2022/07/22 09:53:04;;;;;;;5.78;5.18;;;28.30;99.90;;;;;;7388742;19;20146;-80
2022/07/22 09:55:30;;;;;;;6.18;4.95;;;28.30;99.90;;;;;;7388724;19;20137;-80
2022/07/22 09:57:57;;;;;;;9.15;5.32;;;28.20;99.90;;;;;;7390879;19;20454;-80
2022/07/22 10:00:25;;;;;;;6.55;5.28;;;28.10;99.90;;;;;;7390152;19;20134;-81
2022/07/22 10:02:57;;;;;;;5.47;4.93;;;28.10;99.90;;;;;;7391723;19;20157;-81
2022/07/22 10:05:26;;;;;;;5.57;4.70;;;28.20;99.90;;;;;;7389488;19;20142;-81
2022/07/22 10:07:53;;;;;;;5.70;5.13;;;28.20;99.90;;;;;;7385560;19;20198;-79
2022/07/22 10:10:22;;;;;;;6.50;5.30;;;28.20;99.90;;;;;;7391698;19;20238;-80
2022/07/22 10:12:49;;;;;;;5.38;4.88;;;28.10;99.90;;;;;;7387524;19;20134;-78
2022/07/22 10:15:16;;;;;;;6.03;5.03;;;28.20;99.90;;;;;;7388594;19;20732;-79
2022/07/22 10:17:44;;;;;;;6.63;4.75;;;28.30;99.90;;;;;;7386198;19;20676;-79
2022/07/22 10:20:12;;;;;;;6.03;5.43;;;28.40;99.90;;;;;;7386216;19;20894;-79
2022/07/22 10:22:44;;;;;;;6.07;4.80;;;28.40;99.90;;;;;;7385531;19;20142;-78
2022/07/22 10:25:13;;;;;;;5.40;4.90;;;28.50;99.90;;;;;;7390811;19;20163;-79
2022/07/22 10:27:50;;;;;;;5.60;4.60;;;28.70;99.90;;;;;;7386414;19;20147;-80
2022/07/22 10:30:19;;;;;;;6.18;4.95;;;28.80;99.90;;;;;;7389963;19;20238;-80
2022/07/22 10:33:00;;;;;;;6.43;4.80;;;28.90;99.90;;;;;;7387633;19;20146;-80
2022/07/22 10:35:26;;;;;;;6.40;5.05;;;29.10;99.90;;;;;;7388678;19;20178;-79
2022/07/22 10:37:55;;;;;;;5.30;4.65;;;29.20;99.90;;;;;;7386100;19;20143;-78
2022/07/22 10:40:28;;;;;;;6.18;5.57;;;28.90;99.90;;;;;;7388602;19;20209;-79
2022/07/22 10:42:59;;;;;;;5.60;5.00;;;29.10;99.90;;;;;;7389865;19;20159;-79
2022/07/22 10:45:30;;;;;;;5.78;5.18;;;29.20;99.90;;;;;;7388091;19;20263;-80
2022/07/22 10:48:03;;;;;;;5.78;4.93;;;29.20;99.80;;;;;;7383579;19;20145;-79
2022/07/22 10:50:37;;;;;;;7.13;4.97;;;29.10;99.90;;;;;;7384821;19;20149;-79
2022/07/22 10:53:05;;;;;;;5.78;4.05;;;29.00;99.90;;;;;;7387454;19;20154;-79
2022/07/22 10:55:32;;;;;;;6.70;5.05;;;28.90;99.90;;;;;;7389287;19;20134;-79
2022/07/22 10:57:58;;;;;;;5.55;5.00;;;29.00;99.90;;;;;;7385529;19;20592;-80
2022/07/22 11:00:24;;;;;;;5.32;4.82;;;29.10;99.90;;;;;;7387746;19;20162;-79
2022/07/22 11:02:50;;;;;;;6.75;5.13;;;29.10;99.90;;;;;;7390031;19;20135;-78
2022/07/22 11:05:27;;;;;;;6.57;5.20;;;29.20;99.90;;;;;;7386025;19;20548;-79
2022/07/22 11:07:53;;;;;;;4.93;4.32;;;29.40;99.70;;;;;;7385336;19;20150;-80
2022/07/22 11:10:20;;;;;;;5.35;4.78;;;29.50;99.50;;;;;;7397755;19;20161;-81
2022/07/22 11:12:47;;;;;;;4.78;4.20;;;29.50;99.50;;;;;;7386696;19;20151;-80
2022/07/22 11:15:13;;;;;;;4.78;4.38;;;29.40;99.30;;;;;;7387323;19;20146;-80
2022/07/22 11:17:39;;;;;;;5.95;4.95;;;29.30;99.30;;;;;;7385467;19;20138;-79
2022/07/22 11:20:08;;;;;;;6.60;5.43;;;29.30;99.90;;;;;;7393504;19;20181;-81
2022/07/22 11:22:35;;;;;;;5.93;4.57;;;29.40;99.40;;;;;;7396672;19;20135;-81
2022/07/22 11:25:06;;;;;;;4.97;4.47;;;29.50;99.20;;;;;;7396728;19;20154;-80
2022/07/22 11:27:32;;;;;;;5.38;4.85;;;29.40;99.20;;;;;;7391202;19;20157;-79
2022/07/22 11:29:58;;;;;;;5.45;4.80;;;29.40;99.20;;;;;;7390888;19;20158;-79
2022/07/22 11:32:27;;;;;;;6.43;4.88;;;29.50;99.20;;;;;;7397238;19;20135;-79
2022/07/22 11:34:53;;;;;;;5.68;5.10;;;29.50;99.30;;;;;;7397608;19;20141;-79
2022/07/22 11:37:24;;;;;;;6.38;4.85;;;29.80;99.30;;;;;;7394918;19;20201;-80
2022/07/22 11:39:50;;;;;;;5.30;4.50;;;29.90;99.00;;;;;;7395991;19;20139;-80
2022/07/22 11:42:16;;;;;;;6.95;5.53;;;30.10;98.40;;;;;;7394343;19;20465;-80
2022/07/22 11:44:42;;;;;;;5.57;4.57;;;30.10;98.00;;;;;;7395625;19;20157;-79
2022/07/22 11:47:09;;;;;;;5.18;4.38;;;30.10;97.80;;;;;;7392696;19;20131;-79
2022/07/22 11:49:37;;;;;;;5.93;5.35;;;30.10;98.20;;;;;;7389625;19;20145;-80
2022/07/22 11:52:07;;;;;;;8.82;5.07;;;30.20;97.60;;;;;;7394928;19;20145;-80
2022/07/22 11:54:33;;;;;;;6.43;4.85;;;30.00;97.30;;;;;;7400498;19;20171;-81
2022/07/22 11:56:59;;;;;;;4.47;4.05;;;30.10;97.20;;;;;;7396339;19;20139;-80
2022/07/22 11:59:25;;;;;;;4.57;4.18;;;30.10;97.30;;;;;;7393260;19;20177;-81
2022/07/22 12:01:52;;;;;;;5.43;4.05;;;30.40;96.70;;;;;;7395044;19;20142;-81
2022/07/22 12:04:23;;;;;;;4.97;3.75;;;30.50;95.90;;;;;;7392536;19;20146;-79
2022/07/22 12:06:50;;;;;;;6.18;4.07;;;30.50;95.90;;;;;;7391886;19;20647;-79
2022/07/22 12:09:20;;;;;;;3.90;3.50;;;30.60;94.30;;;;;;7393596;19;20170;-79
2022/07/22 12:11:49;;;;;;;6.20;4.30;;;30.60;94.50;;;;;;7395077;19;20214;-80
2022/07/22 12:14:23;;;;;;;6.88;3.72;;;30.80;94.30;;;;;;7388924;19;20476;-80
2022/07/22 12:17:07;;;;;;;5.13;4.63;;;30.80;94.60;;;;;;7393111;19;20130;-79
2022/07/22 12:19:35;;;;;;;4.55;4.15;;;31.00;94.40;;;;;;7391368;19;20149;-80
2022/07/22 12:22:07;;;;;;;5.28;4.50;;;31.10;93.80;;;;;;7390860;19;20139;-80
2022/07/22 12:24:32;;;;;;;4.10;3.63;;;31.10;93.80;;;;;;7395745;19;20151;-80
2022/07/22 12:27:01;;;;;;;9.15;4.22;;;31.00;94.00;;;;;;7388295;19;20162;-81
2022/07/22 12:29:40;;;;;;;5.10;4.05;;;31.00;94.00;;;;;;7391020;19;20483;-79
2022/07/22 12:32:09;;;;;;;4.47;4.07;;;31.00;93.90;;;;;;7395569;19;20135;-79
2022/07/22 12:34:40;;;;;;;5.32;3.92;;;31.10;92.80;;;;;;7393468;19;20194;-81
2022/07/22 12:37:29;;;;;;;5.43;3.95;;;31.10;92.40;;;;;;7390522;19;20138;-79
2022/07/22 12:39:57;;;;;;;5.18;4.30;;;31.00;92.50;;;;;;7391926;19;20159;-80
2022/07/22 12:42:26;;;;;;;4.88;4.28;;;31.10;93.30;;;;;;7393009;19;20165;-80
2022/07/22 12:44:52;;;;;;;5.43;4.18;;;31.00;93.80;;;;;;7390484;19;20134;-80